Time;durP1;ratioP1;P1;durP2;ratioP2;P2;SDS_P1;SDS_P2;PMS_P1;PMS_P2;Temp;Humidity;BMP_temperature;BMP_pressure;BME280_temperature;BME280_humidity;BME280_pressure;Samples;Min_cycle;Max_cycle;Signal;HPM_P1;HPM_P2
2024/01/28 00:00:42;;;;;;;31.30;13.35;;;-0.30;99.90;;;;;;5013630;28;20038;-70
2024/01/28 00:03:08;;;;;;;42.90;14.52;;;-0.40;99.90;;;;;;5013590;28;20041;-70
2024/01/28 00:05:34;;;;;;;31.10;12.70;;;-0.40;99.90;;;;;;5013598;28;20026;-70
2024/01/28 00:08:00;;;;;;;36.72;14.63;;;-0.40;99.90;;;;;;5013134;28;20450;-70
2024/01/28 00:10:25;;;;;;;27.15;13.63;;;-0.40;99.90;;;;;;5013367;28;20541;-70
2024/01/28 00:12:51;;;;;;;26.67;13.23;;;-0.50;99.90;;;;;;5013570;28;20109;-70
2024/01/28 00:15:17;;;;;;;34.33;13.05;;;-0.50;99.90;;;;;;5013369;28;20033;-70
2024/01/28 00:17:43;;;;;;;41.42;13.52;;;-0.60;99.90;;;;;;5013376;28;20030;-70
2024/01/28 00:20:09;;;;;;;36.15;13.20;;;-0.50;99.90;;;;;;5013387;28;20053;-70
2024/01/28 00:22:34;;;;;;;29.85;13.27;;;-0.40;99.90;;;;;;5013518;28;20160;-70
2024/01/28 00:25:00;;;;;;;30.45;13.38;;;-0.40;99.90;;;;;;5013394;28;20084;-70
2024/01/28 00:27:25;;;;;;;36.90;13.90;;;-0.30;99.90;;;;;;5016268;28;20030;-70
2024/01/28 00:29:51;;;;;;;30.25;12.85;;;-0.30;99.90;;;;;;5017035;28;20030;-70
2024/01/28 00:32:17;;;;;;;33.22;13.30;;;-0.30;99.90;;;;;;5017078;28;20026;-70
2024/01/28 00:34:43;;;;;;;32.10;13.00;;;-0.30;99.90;;;;;;5017386;28;20030;-70
2024/01/28 00:37:10;;;;;;;38.55;12.70;;;-0.30;99.90;;;;;;5017216;28;20026;-70
2024/01/28 00:39:35;;;;;;;29.45;12.57;;;-0.30;99.90;;;;;;5017165;28;20542;-70
2024/01/28 00:42:03;;;;;;;42.80;12.85;;;-0.30;99.90;;;;;;5016822;28;20026;-70
2024/01/28 00:44:28;;;;;;;35.03;12.88;;;-0.30;99.90;;;;;;5016856;28;20518;-70
2024/01/28 00:46:55;;;;;;;29.90;12.48;;;-0.20;99.90;;;;;;5017166;28;20030;-70
2024/01/28 00:49:23;;;;;;;39.78;14.00;;;-0.10;99.90;;;;;;5016780;28;20069;-70
2024/01/28 00:51:49;;;;;;;28.92;13.45;;;-0.10;99.90;;;;;;5017030;28;20034;-70
2024/01/28 00:54:15;;;;;;;34.05;12.82;;;-0.20;99.90;;;;;;5017161;28;20575;-70
2024/01/28 00:56:41;;;;;;;39.95;13.73;;;-0.30;99.90;;;;;;5016611;28;20072;-70
2024/01/28 00:59:06;;;;;;;28.92;13.13;;;-0.30;99.90;;;;;;5016856;28;20558;-70
2024/01/28 01:01:32;;;;;;;32.45;12.25;;;-0.30;99.90;;;;;;5016442;28;20026;-70
2024/01/28 01:03:58;;;;;;;29.65;13.98;;;;;;;;;;5016782;28;20033;-71
2024/01/28 01:06:24;;;;;;;35.95;12.95;;;-0.40;99.90;;;;;;5016748;28;20075;-70
2024/01/28 01:08:49;;;;;;;49.17;16.73;;;-0.50;99.90;;;;;;5016641;28;20097;-69
2024/01/28 01:11:15;;;;;;;35.35;12.82;;;-0.40;99.90;;;;;;5016438;28;20439;-70
2024/01/28 01:13:40;;;;;;;31.23;12.57;;;-0.30;99.90;;;;;;5016777;28;20419;-69
2024/01/28 01:16:06;;;;;;;36.47;12.02;;;-0.40;99.90;;;;;;5016560;28;20481;-70
2024/01/28 01:18:32;;;;;;;29.08;11.25;;;-0.20;99.90;;;;;;5016124;28;20018;-70
2024/01/28 01:20:57;;;;;;;24.35;10.73;;;-0.30;99.90;;;;;;5016449;28;20128;-70
2024/01/28 01:23:23;;;;;;;28.17;11.07;;;-0.10;99.90;;;;;;5016455;28;20112;-70
2024/01/28 01:25:48;;;;;;;29.15;10.52;;;-0.20;99.90;;;;;;5016476;28;20391;-70
2024/01/28 01:28:14;;;;;;;27.27;10.68;;;-0.60;99.90;;;;;;5016312;28;20059;-70
2024/01/28 01:30:40;;;;;;;33.33;11.00;;;0.00;99.90;;;;;;5016177;28;20064;-70
2024/01/28 01:33:06;;;;;;;28.80;10.55;;;-0.10;99.90;;;;;;5016214;28;20120;-71
2024/01/28 01:35:31;;;;;;;30.65;11.18;;;0.00;99.90;;;;;;5016145;28;20089;-71
2024/01/28 01:37:57;;;;;;;29.45;10.68;;;0.00;99.90;;;;;;5016017;28;20400;-70
2024/01/28 01:40:23;;;;;;;28.75;10.07;;;-0.10;99.90;;;;;;5016108;28;20483;-70
2024/01/28 01:42:50;;;;;;;23.73;10.35;;;-0.20;99.90;;;;;;5015989;28;20034;-70
2024/01/28 01:45:16;;;;;;;22.48;9.25;;;-0.20;99.90;;;;;;5016132;28;20427;-70
2024/01/28 01:47:42;;;;;;;22.88;9.52;;;-0.20;99.90;;;;;;5015612;28;20030;-70
2024/01/28 01:50:10;;;;;;;21.85;9.52;;;-0.30;99.90;;;;;;5015783;28;20068;-70
2024/01/28 01:52:39;;;;;;;24.40;10.02;;;-0.40;99.90;;;;;;5016008;28;20395;-70
2024/01/28 01:55:06;;;;;;;25.30;10.95;;;-0.40;99.90;;;;;;5015841;28;20117;-69
2024/01/28 01:57:32;;;;;;;30.00;10.65;;;-0.50;99.90;;;;;;5015790;28;20459;-70
2024/01/28 01:59:57;;;;;;;24.15;9.70;;;-0.60;99.90;;;;;;5015754;28;20038;-70
2024/01/28 02:02:24;;;;;;;27.05;9.35;;;-0.60;99.90;;;;;;5015700;28;20030;-70
2024/01/28 02:04:50;;;;;;;25.50;8.90;;;-0.50;99.90;;;;;;5015651;28;20081;-71
2024/01/28 02:07:16;;;;;;;26.60;9.25;;;-0.40;99.90;;;;;;5015781;28;20026;-71
2024/01/28 02:09:42;;;;;;;25.88;9.45;;;-0.40;99.90;;;;;;5015638;28;20045;-71
2024/01/28 02:12:07;;;;;;;21.67;8.90;;;-0.20;99.90;;;;;;5015526;28;20061;-70
2024/01/28 02:14:33;;;;;;;23.50;9.70;;;0.00;99.90;;;;;;5015467;28;20096;-71
2024/01/28 02:16:59;;;;;;;28.23;9.82;;;-0.10;99.90;;;;;;5015382;28;20037;-70
2024/01/28 02:19:26;;;;;;;33.70;10.45;;;0.00;99.90;;;;;;5015410;28;20063;-70
2024/01/28 02:21:52;;;;;;;31.95;9.93;;;0.00;99.90;;;;;;5015367;28;20026;-71
2024/01/28 02:24:17;;;;;;;25.63;9.70;;;0.10;99.90;;;;;;5014860;28;20041;-70
2024/01/28 02:26:43;;;;;;;21.05;10.25;;;0.10;99.90;;;;;;5015304;28;20030;-71
2024/01/28 02:29:08;;;;;;;22.27;9.98;;;0.20;99.90;;;;;;5015213;28;20026;-71
2024/01/28 02:31:34;;;;;;;22.55;9.98;;;0.20;99.90;;;;;;5014823;28;20025;-71
2024/01/28 02:34:00;;;;;;;27.75;9.82;;;0.30;99.90;;;;;;5015125;28;20026;-72
2024/01/28 02:36:28;;;;;;;27.73;9.68;;;0.30;99.90;;;;;;5015127;28;20072;-71
2024/01/28 02:38:54;;;;;;;28.13;9.43;;;0.30;99.90;;;;;;5015058;28;20033;-71
2024/01/28 02:41:22;;;;;;;30.10;9.73;;;-0.50;99.90;;;;;;5015010;28;20499;-70
2024/01/28 02:43:48;;;;;;;23.45;9.63;;;0.20;99.90;;;;;;5014726;28;20084;-71
2024/01/28 02:46:14;;;;;;;25.05;9.93;;;0.30;99.90;;;;;;5014962;28;20030;-71
2024/01/28 02:48:40;;;;;;;28.15;9.75;;;0.30;99.90;;;;;;5014389;28;20523;-71
2024/01/28 02:51:06;;;;;;;22.10;8.60;;;0.30;99.90;;;;;;5014559;28;20029;-71
2024/01/28 02:53:32;;;;;;;22.25;9.07;;;0.30;99.90;;;;;;5014777;28;20036;-71
2024/01/28 02:55:59;;;;;;;23.77;9.73;;;0.30;99.90;;;;;;5014651;28;20041;-71
2024/01/28 02:58:26;;;;;;;26.90;9.13;;;0.30;99.90;;;;;;5014701;28;20458;-71
2024/01/28 03:00:52;;;;;;;21.52;8.48;;;0.10;99.90;;;;;;5014632;28;20032;-71
2024/01/28 03:03:18;;;;;;;26.52;8.93;;;0.10;99.90;;;;;;5014292;28;20030;-70
2024/01/28 03:05:44;;;;;;;21.80;9.05;;;0.10;99.90;;;;;;5014687;28;20029;-71
2024/01/28 03:08:09;;;;;;;22.52;8.82;;;0.10;99.90;;;;;;5014444;28;20114;-71
2024/01/28 03:10:35;;;;;;;20.23;8.77;;;0.00;99.90;;;;;;5014244;28;20025;-70
2024/01/28 03:13:00;;;;;;;19.00;7.97;;;0.10;99.90;;;;;;5014456;28;20030;-71
2024/01/28 03:15:26;;;;;;;19.65;8.38;;;0.10;99.90;;;;;;5014470;28;20041;-71
2024/01/28 03:17:51;;;;;;;21.10;8.05;;;-0.10;99.90;;;;;;5014247;28;20037;-70
2024/01/28 03:20:19;;;;;;;19.98;8.73;;;-0.10;99.90;;;;;;5014394;28;20484;-70
2024/01/28 03:22:44;;;;;;;23.23;9.05;;;-0.10;99.90;;;;;;5014337;28;20092;-70
2024/01/28 03:25:12;;;;;;;18.33;8.43;;;-0.20;99.90;;;;;;5013876;28;20022;-70
2024/01/28 03:27:38;;;;;;;18.90;7.72;;;-0.10;99.90;;;;;;5014144;28;20551;-70
2024/01/28 03:30:04;;;;;;;19.83;8.55;;;-0.10;99.90;;;;;;5014057;28;20122;-70
2024/01/28 03:32:30;;;;;;;17.15;7.05;;;-0.20;99.90;;;;;;5014044;28;20365;-70
2024/01/28 03:34:56;;;;;;;15.63;7.25;;;-0.10;99.90;;;;;;5013708;28;20018;-71
2024/01/28 03:37:21;;;;;;;16.90;7.55;;;-0.10;99.90;;;;;;5014102;28;20026;-70
2024/01/28 03:39:47;;;;;;;21.92;8.48;;;-0.10;99.90;;;;;;5014023;28;20064;-70
2024/01/28 03:42:12;;;;;;;20.98;7.93;;;0.00;99.90;;;;;;5013956;28;20072;-70
2024/01/28 03:44:38;;;;;;;21.95;8.13;;;-0.10;99.90;;;;;;5013283;28;20054;-71
2024/01/28 03:47:04;;;;;;;18.88;7.95;;;-0.10;99.90;;;;;;5013927;28;20038;-71
2024/01/28 03:49:29;;;;;;;16.63;7.18;;;-0.20;99.90;;;;;;5013732;28;20034;-70
2024/01/28 03:51:55;;;;;;;17.38;6.65;;;-0.10;99.90;;;;;;5013811;28;20068;-70
2024/01/28 03:54:20;;;;;;;16.23;7.50;;;-0.10;99.90;;;;;;5013911;28;20057;-71
2024/01/28 03:56:46;;;;;;;15.80;7.28;;;-0.20;99.90;;;;;;5013782;28;20133;-70
2024/01/28 03:59:13;;;;;;;15.32;7.20;;;-0.20;99.90;;;;;;5013630;28;20068;-70
2024/01/28 04:01:39;;;;;;;23.58;7.82;;;-0.10;99.90;;;;;;5012496;28;20022;-70
2024/01/28 04:04:05;;;;;;;25.15;8.10;;;-0.10;99.90;;;;;;5013243;28;20044;-71
2024/01/28 04:06:31;;;;;;;19.35;7.90;;;-0.10;99.90;;;;;;5013578;28;20115;-70
2024/01/28 04:08:56;;;;;;;21.13;8.57;;;0.00;99.90;;;;;;5013248;28;20096;-70
2024/01/28 04:11:25;;;;;;;18.48;7.85;;;-0.20;99.90;;;;;;5013390;28;20113;-69
2024/01/28 04:13:51;;;;;;;17.38;7.97;;;0.10;99.90;;;;;;5013461;28;20560;-70
2024/01/28 04:16:16;;;;;;;24.92;8.88;;;-0.20;99.90;;;;;;5013678;28;20062;-70
2024/01/28 04:18:42;;;;;;;15.48;7.40;;;-0.10;99.90;;;;;;5013481;28;20038;-70
2024/01/28 04:21:07;;;;;;;16.08;7.68;;;-0.10;99.90;;;;;;5013395;28;20454;-70
2024/01/28 04:23:33;;;;;;;17.90;6.85;;;-0.30;99.90;;;;;;5013332;28;20032;-70
2024/01/28 04:25:58;;;;;;;20.00;8.23;;;-0.30;99.90;;;;;;5013411;28;20034;-70
2024/01/28 04:28:25;;;;;;;17.27;7.20;;;-0.30;99.90;;;;;;5013443;28;20125;-70
2024/01/28 04:30:51;;;;;;;14.90;6.97;;;-0.40;99.90;;;;;;5013226;28;20468;-70
2024/01/28 04:33:17;;;;;;;19.95;8.35;;;-0.40;99.90;;;;;;5013281;28;20153;-70
2024/01/28 04:35:42;;;;;;;22.60;7.38;;;-0.40;99.90;;;;;;5013340;28;20030;-70
2024/01/28 04:38:08;;;;;;;17.33;7.10;;;-0.40;99.90;;;;;;5013132;28;20033;-70
2024/01/28 04:40:34;;;;;;;15.27;7.10;;;-0.40;99.90;;;;;;5012951;28;20051;-70
2024/01/28 04:42:59;;;;;;;17.17;7.53;;;-0.50;99.90;;;;;;5013047;28;20054;-70
2024/01/28 04:45:25;;;;;;;16.63;7.90;;;-0.50;99.90;;;;;;5013251;28;20034;-70
2024/01/28 04:47:50;;;;;;;17.20;7.93;;;-0.50;99.90;;;;;;5013261;28;20434;-70
2024/01/28 04:50:16;;;;;;;15.98;7.30;;;-0.60;99.90;;;;;;5013193;28;20033;-70
2024/01/28 04:52:42;;;;;;;22.48;7.55;;;-0.60;99.90;;;;;;5013110;28;20084;-70
2024/01/28 04:55:07;;;;;;;19.27;7.15;;;-0.30;99.90;;;;;;5013218;28;20034;-70
2024/01/28 04:57:33;;;;;;;18.83;6.88;;;-0.30;99.90;;;;;;5012560;28;20029;-70
2024/01/28 04:59:58;;;;;;;17.05;7.38;;;-0.40;99.90;;;;;;5013070;28;20026;-70
2024/01/28 05:02:24;;;;;;;13.88;7.10;;;-0.30;99.90;;;;;;5013064;28;20045;-71
2024/01/28 05:04:49;;;;;;;17.40;7.47;;;-0.50;99.90;;;;;;5013096;28;20070;-70
2024/01/28 05:07:16;;;;;;;22.40;7.40;;;-0.60;99.90;;;;;;5013104;28;20452;-70
2024/01/28 05:09:42;;;;;;;16.67;6.70;;;-0.60;99.90;;;;;;5012838;28;20380;-70
2024/01/28 05:12:07;;;;;;;22.08;7.18;;;-0.70;99.90;;;;;;5013797;28;20037;-71
2024/01/28 05:14:34;;;;;;;13.52;7.07;;;-0.70;99.90;;;;;;5016324;28;20030;-70
2024/01/28 05:17:00;;;;;;;15.05;6.75;;;-0.80;99.90;;;;;;5016640;28;20018;-70
2024/01/28 05:19:26;;;;;;;19.13;7.55;;;-0.90;99.90;;;;;;5016301;28;20022;-70
2024/01/28 05:21:52;;;;;;;23.92;7.75;;;-0.90;99.90;;;;;;5016505;28;20030;-70
2024/01/28 05:24:18;;;;;;;19.98;8.65;;;-0.80;99.90;;;;;;5016436;28;20495;-71
2024/01/28 05:26:43;;;;;;;19.48;8.10;;;-0.70;99.90;;;;;;5016340;28;20030;-71
2024/01/28 05:29:09;;;;;;;22.52;8.43;;;-0.70;99.90;;;;;;5016390;28;20514;-70
2024/01/28 05:31:35;;;;;;;22.17;8.40;;;-0.60;99.90;;;;;;5015919;28;20026;-70
2024/01/28 05:34:01;;;;;;;21.17;7.90;;;-0.60;99.90;;;;;;5016304;28;20541;-71
2024/01/28 05:36:27;;;;;;;19.92;7.85;;;-0.60;99.90;;;;;;5016307;28;20383;-70
2024/01/28 05:38:54;;;;;;;21.98;7.60;;;-0.60;99.90;;;;;;5015857;28;20068;-70
2024/01/28 05:41:20;;;;;;;23.08;8.05;;;-0.60;99.90;;;;;;5016322;28;20391;-70
2024/01/28 05:43:46;;;;;;;19.42;7.72;;;-0.50;99.90;;;;;;5015892;28;20052;-70
2024/01/28 05:46:11;;;;;;;20.90;7.80;;;-0.60;99.90;;;;;;5015631;28;20021;-70
2024/01/28 05:48:37;;;;;;;16.45;8.38;;;-0.60;99.90;;;;;;5015994;28;20037;-70
2024/01/28 05:51:03;;;;;;;19.77;7.57;;;-0.50;99.90;;;;;;5015806;28;20033;-70
2024/01/28 05:53:28;;;;;;;20.55;7.13;;;-0.50;99.90;;;;;;5015912;28;20116;-70
2024/01/28 05:55:54;;;;;;;15.40;6.28;;;-0.50;99.90;;;;;;5015993;28;20022;-70
2024/01/28 05:58:21;;;;;;;20.52;7.20;;;-0.50;99.90;;;;;;5015595;28;20061;-70
2024/01/28 06:00:47;;;;;;;13.98;6.80;;;-0.50;99.90;;;;;;5015938;28;20037;-70
2024/01/28 06:03:13;;;;;;;24.13;7.82;;;-0.50;99.90;;;;;;5015608;28;20120;-70
2024/01/28 06:05:39;;;;;;;16.50;6.55;;;-0.50;99.90;;;;;;5015239;28;20499;-70
2024/01/28 06:08:06;;;;;;;16.48;6.40;;;-0.50;99.90;;;;;;5015747;28;20037;-70
2024/01/28 06:10:31;;;;;;;13.13;6.20;;;-0.60;99.90;;;;;;5015433;28;20030;-70
2024/01/28 06:12:57;;;;;;;13.98;6.10;;;-0.60;99.90;;;;;;5015174;28;20476;-70
2024/01/28 06:15:22;;;;;;;13.65;5.57;;;-0.60;99.90;;;;;;5015581;28;20026;-70
2024/01/28 06:17:48;;;;;;;21.70;6.50;;;-0.60;99.90;;;;;;5015141;28;20057;-70
2024/01/28 06:20:13;;;;;;;16.10;5.88;;;-0.60;99.90;;;;;;5015451;28;20041;-71
2024/01/28 06:22:39;;;;;;;13.65;5.50;;;-0.60;99.90;;;;;;5014954;28;20029;-71
2024/01/28 06:25:07;;;;;;;15.00;5.75;;;-0.60;99.90;;;;;;5014498;28;20041;-70
2024/01/28 06:27:32;;;;;;;11.60;6.20;;;-0.70;99.90;;;;;;5015048;28;20045;-69
2024/01/28 06:29:58;;;;;;;15.45;5.90;;;-0.70;99.90;;;;;;5015094;28;20034;-70
2024/01/28 06:32:25;;;;;;;13.98;5.85;;;-0.80;99.90;;;;;;5015198;28;20026;-71
2024/01/28 06:34:52;;;;;;;12.50;5.88;;;-1.30;99.90;;;;;;5015198;28;20176;-70
2024/01/28 06:37:18;;;;;;;14.45;6.25;;;-0.80;99.90;;;;;;5014775;28;20033;-70
2024/01/28 06:39:44;;;;;;;16.77;6.15;;;-0.80;99.90;;;;;;5014754;28;20469;-70
2024/01/28 06:42:09;;;;;;;13.85;5.88;;;-0.90;99.90;;;;;;5015050;28;20041;-70
2024/01/28 06:44:36;;;;;;;11.40;6.22;;;-1.00;99.90;;;;;;5014553;28;20046;-70
2024/01/28 06:47:03;;;;;;;14.68;6.80;;;-0.90;99.90;;;;;;5014863;28;20065;-70
2024/01/28 06:49:29;;;;;;;15.00;6.68;;;-0.90;99.90;;;;;;5014866;28;20476;-70
2024/01/28 06:51:54;;;;;;;14.75;5.88;;;-0.80;99.90;;;;;;5014561;28;20076;-70
2024/01/28 06:54:21;;;;;;;17.35;6.07;;;-0.70;99.90;;;;;;5014849;28;20041;-69
2024/01/28 06:56:48;;;;;;;11.90;5.70;;;-0.60;99.90;;;;;;5014877;28;20022;-70
2024/01/28 06:59:14;;;;;;;15.20;5.57;;;-0.60;99.90;;;;;;5014608;28;20087;-70
2024/01/28 07:01:39;;;;;;;12.82;5.57;;;-0.60;99.90;;;;;;5014747;28;20038;-70
2024/01/28 07:04:05;;;;;;;15.20;5.82;;;-0.60;99.90;;;;;;5014628;28;20117;-71
2024/01/28 07:06:31;;;;;;;13.85;5.93;;;-0.60;99.90;;;;;;5014147;28;20026;-70
2024/01/28 07:08:57;;;;;;;15.75;5.50;;;-0.60;99.90;;;;;;5014590;28;20076;-70
2024/01/28 07:11:23;;;;;;;13.05;6.03;;;-0.40;99.90;;;;;;5014297;28;20030;-70
2024/01/28 07:13:48;;;;;;;12.90;5.68;;;-0.50;99.90;;;;;;5014027;28;20045;-70
2024/01/28 07:16:14;;;;;;;19.65;6.13;;;-0.50;99.90;;;;;;5014323;28;20030;-70
2024/01/28 07:18:39;;;;;;;13.90;5.65;;;-0.50;99.90;;;;;;5014009;28;20049;-70
2024/01/28 07:21:05;;;;;;;11.43;5.10;;;-0.40;99.90;;;;;;5014000;28;20065;-70
2024/01/28 07:23:31;;;;;;;16.10;5.60;;;-0.30;99.90;;;;;;5014324;28;20124;-70
2024/01/28 07:25:57;;;;;;;13.48;4.53;;;-0.50;99.90;;;;;;5014168;28;20052;-70
2024/01/28 07:28:22;;;;;;;13.88;4.97;;;-0.50;99.90;;;;;;5014071;28;20113;-70
2024/01/28 07:30:48;;;;;;;14.02;5.25;;;-0.80;99.90;;;;;;5013675;28;20040;-70
2024/01/28 07:33:15;;;;;;;13.80;5.18;;;-0.50;99.90;;;;;;5014056;28;20121;-70
2024/01/28 07:35:41;;;;;;;16.80;5.13;;;-0.70;99.90;;;;;;5013997;28;20022;-70
2024/01/28 07:38:08;;;;;;;12.98;5.13;;;-0.40;99.90;;;;;;5014140;28;20033;-70
2024/01/28 07:40:34;;;;;;;11.88;5.68;;;-0.30;99.90;;;;;;5014051;28;20026;-70
2024/01/28 07:42:59;;;;;;;11.98;5.18;;;-0.30;99.90;;;;;;5013716;28;20439;-70
2024/01/28 07:45:25;;;;;;;19.30;5.78;;;-0.40;99.90;;;;;;5013638;28;20034;-70
2024/01/28 07:47:51;;;;;;;16.27;5.35;;;-0.40;99.90;;;;;;5014048;28;20026;-70
2024/01/28 07:50:17;;;;;;;14.13;5.40;;;-0.70;99.90;;;;;;5013902;28;20518;-70
2024/01/28 07:52:43;;;;;;;11.93;5.65;;;-0.30;99.90;;;;;;5013519;28;20037;-70
2024/01/28 07:55:10;;;;;;;11.93;5.93;;;-0.20;99.90;;;;;;5013330;28;20026;-70
2024/01/28 07:57:35;;;;;;;17.08;6.43;;;0.40;99.90;;;;;;5013709;28;20022;-70
2024/01/28 08:00:01;;;;;;;15.30;6.00;;;2.40;99.90;;;;;;5013704;28;20030;-71
2024/01/28 08:02:29;;;;;;;12.55;4.78;;;4.10;99.90;;;;;;5013338;28;20022;-71
2024/01/28 08:04:54;;;;;;;14.68;5.13;;;4.90;1.00;;;;;;5013788;28;20506;-70
2024/01/28 08:07:20;;;;;;;14.27;5.07;;;5.10;1.00;;;;;;5013324;28;20022;-70
2024/01/28 08:09:45;;;;;;;10.63;4.63;;;5.30;19.90;;;;;;5013555;28;20072;-71
2024/01/28 08:12:11;;;;;;;12.13;4.85;;;5.70;99.90;;;;;;5013514;28;20125;-71
2024/01/28 08:14:36;;;;;;;10.02;4.53;;;6.10;1.00;;;;;;5013489;28;20384;-71
2024/01/28 08:17:02;;;;;;;11.45;5.03;;;6.30;1.00;;;;;;5013108;28;20026;-70
2024/01/28 08:19:28;;;;;;;7.03;4.32;;;6.90;99.90;;;;;;5013490;28;20392;-71
2024/01/28 08:21:53;;;;;;;11.20;4.53;;;7.70;99.90;;;;;;5013496;28;20044;-70
2024/01/28 08:24:19;;;;;;;8.65;3.83;;;7.80;99.90;;;;;;5013430;28;20167;-71
2024/01/28 08:26:44;;;;;;;8.88;4.43;;;8.60;99.90;;;;;;5013393;28;20133;-71
2024/01/28 08:29:11;;;;;;;10.40;4.18;;;8.70;99.90;;;;;;5012971;28;20038;-71
2024/01/28 08:31:36;;;;;;;12.32;4.55;;;9.00;1.00;;;;;;5013205;28;20061;-72
2024/01/28 08:34:02;;;;;;;11.13;4.32;;;9.40;96.60;;;;;;5013355;28;20069;-71
2024/01/28 08:36:28;;;;;;;9.90;4.00;;;9.30;99.90;;;;;;5013004;28;20060;-71
2024/01/28 08:38:53;;;;;;;11.55;5.00;;;9.50;99.90;;;;;;5013001;28;20033;-71
2024/01/28 08:41:19;;;;;;;9.60;4.75;;;9.80;99.90;;;;;;5013390;28;20113;-71
2024/01/28 08:43:44;;;;;;;12.77;5.40;;;9.40;99.90;;;;;;5012965;28;20046;-71
2024/01/28 08:46:10;;;;;;;11.13;5.40;;;9.80;99.90;;;;;;5013298;28;20089;-70
2024/01/28 08:48:36;;;;;;;13.40;5.22;;;9.60;99.90;;;;;;5016521;28;20030;-71
2024/01/28 08:51:02;;;;;;;10.85;4.88;;;10.10;99.90;;;;;;5016969;28;20391;-71
2024/01/28 08:53:28;;;;;;;8.52;4.63;;;9.80;99.90;;;;;;5017121;28;20018;-72
2024/01/28 08:55:54;;;;;;;9.60;4.57;;;9.90;99.90;;;;;;5016975;28;20084;-69
2024/01/28 08:58:19;;;;;;;10.55;3.78;;;10.60;99.90;;;;;;5017121;28;20099;-69
2024/01/28 09:00:45;;;;;;;8.85;4.22;;;11.00;99.90;;;;;;5016967;28;20026;-72
2024/01/28 09:03:10;;;;;;;10.38;3.95;;;11.80;99.90;;;;;;5016918;28;20113;-71
2024/01/28 09:05:36;;;;;;;9.57;3.83;;;11.40;98.60;;;;;;5016924;28;20433;-71
2024/01/28 09:08:02;;;;;;;9.20;4.30;;;10.60;99.80;;;;;;5016695;28;20055;-71
2024/01/28 09:10:27;;;;;;;9.35;3.75;;;10.80;99.50;;;;;;5016697;28;20125;-71
2024/01/28 09:12:53;;;;;;;7.28;3.50;;;11.40;98.70;;;;;;5016713;28;20033;-71
2024/01/28 09:15:18;;;;;;;8.55;4.13;;;11.70;97.60;;;;;;5016795;28;20041;-71
2024/01/28 09:17:44;;;;;;;8.43;4.00;;;11.30;98.40;;;;;;5016584;28;20029;-71
2024/01/28 09:20:10;;;;;;;10.45;3.95;;;10.70;99.90;;;;;;5016182;28;20154;-71
2024/01/28 09:22:36;;;;;;;9.25;4.45;;;11.20;99.10;;;;;;5016525;28;20032;-71
2024/01/28 09:25:03;;;;;;;9.90;4.15;;;11.30;98.70;;;;;;5016131;28;20026;-71
2024/01/28 09:27:29;;;;;;;8.10;4.50;;;12.00;97.80;;;;;;5016139;28;20038;-72
2024/01/28 09:29:55;;;;;;;9.13;4.35;;;12.10;97.10;;;;;;5016438;28;20105;-72
2024/01/28 09:32:20;;;;;;;10.50;3.83;;;13.00;95.20;;;;;;5016467;28;20116;-71
2024/01/28 09:34:46;;;;;;;6.47;3.60;;;12.60;95.50;;;;;;5016035;28;20026;-72
2024/01/28 09:37:12;;;;;;;7.70;3.80;;;12.80;95.00;;;;;;5016232;28;20029;-72
2024/01/28 09:39:37;;;;;;;8.15;3.53;;;13.00;93.30;;;;;;5016182;28;20452;-72
2024/01/28 09:42:11;;;;;;;7.45;4.03;;;13.20;92.70;;;;;;5015775;28;20033;-71
2024/01/28 09:44:37;;;;;;;6.35;3.08;;;13.50;91.40;;;;;;5015736;28;20140;-71
2024/01/28 09:47:04;;;;;;;9.60;3.58;;;13.70;91.10;;;;;;5016125;28;20049;-71
2024/01/28 09:49:39;;;;;;;5.63;2.97;;;14.00;89.30;;;;;;5015690;28;20340;-71
2024/01/28 09:52:12;;;;;;;8.52;3.35;;;13.40;90.50;;;;;;5015679;28;20432;-71
2024/01/28 09:54:39;;;;;;;7.18;3.60;;;14.10;88.90;;;;;;5015960;28;20037;-71
2024/01/28 09:57:07;;;;;;;8.88;4.18;;;13.70;88.80;;;;;;5015920;28;20556;-71
2024/01/28 09:59:36;;;;;;;10.57;4.63;;;13.80;87.70;;;;;;5014164;28;20033;-72
2024/01/28 10:02:03;;;;;;;6.03;3.50;;;13.60;88.30;;;;;;5015780;28;20117;-71
2024/01/28 10:04:30;;;;;;;6.07;3.38;;;13.60;87.80;;;;;;5015779;28;20080;-72
2024/01/28 10:06:57;;;;;;;9.85;4.13;;;13.50;87.80;;;;;;5015838;28;20045;-71
2024/01/28 10:09:24;;;;;;;5.88;3.20;;;13.60;87.90;;;;;;5015700;28;20507;-71
2024/01/28 10:11:51;;;;;;;7.65;3.55;;;14.50;84.90;;;;;;5015488;28;20546;-71
2024/01/28 10:14:17;;;;;;;9.35;3.78;;;14.70;82.50;;;;;;5015561;28;20018;-71
2024/01/28 10:16:46;;;;;;;7.25;3.95;;;14.80;82.70;;;;;;5015540;28;20123;-71
2024/01/28 10:19:11;;;;;;;6.80;3.15;;;14.50;82.50;;;;;;5015453;28;20089;-71
2024/01/28 10:21:37;;;;;;;8.52;3.50;;;14.80;80.90;;;;;;5015483;28;20404;-71
2024/01/28 10:24:02;;;;;;;8.38;3.55;;;15.10;78.90;;;;;;5015358;28;20026;-71
2024/01/28 10:26:28;;;;;;;6.65;3.10;;;14.70;80.00;;;;;;5015393;28;20551;-69
2024/01/28 10:28:54;;;;;;;5.20;3.10;;;15.00;78.90;;;;;;5014993;28;20391;-71
2024/01/28 10:31:22;;;;;;;7.55;3.30;;;14.30;79.70;;;;;;5015084;28;20044;-71
2024/01/28 10:33:49;;;;;;;5.03;2.97;;;14.60;81.30;;;;;;5014803;28;20026;-72
2024/01/28 10:36:17;;;;;;;7.10;3.47;;;14.30;80.50;;;;;;5015169;28;20030;-72
2024/01/28 10:38:45;;;;;;;8.20;3.22;;;14.00;80.30;;;;;;5015174;28;20053;-72
2024/01/28 10:41:16;;;;;;;5.60;3.20;;;13.90;80.40;;;;;;5015021;28;20083;-71
2024/01/28 10:43:51;;;;;;;5.90;2.83;;;13.60;82.90;;;;;;5014407;28;20140;-71
2024/01/28 10:46:23;;;;;;;6.05;2.40;;;13.90;82.80;;;;;;5014586;28;20026;-71
2024/01/28 10:48:52;;;;;;;4.82;2.67;;;14.50;79.10;;;;;;5015477;28;20025;-72
2024/01/28 10:51:19;;;;;;;6.43;2.35;;;14.40;80.10;;;;;;5014399;28;20069;-72
2024/01/28 10:53:45;;;;;;;6.72;2.85;;;14.20;79.80;;;;;;5014871;28;20465;-72
2024/01/28 10:56:12;;;;;;;8.10;3.22;;;14.60;81.00;;;;;;5014850;28;20109;-72
2024/01/28 10:58:39;;;;;;;5.05;2.88;;;14.50;81.00;;;;;;5014715;28;20025;-72
2024/01/28 11:01:07;;;;;;;7.30;3.13;;;14.50;79.60;;;;;;5014756;28;20034;-72
2024/01/28 11:03:33;;;;;;;5.85;2.85;;;14.40;79.20;;;;;;5014659;28;20541;-71
2024/01/28 11:05:59;;;;;;;5.70;2.35;;;14.20;79.10;;;;;;5014276;28;20053;-72
2024/01/28 11:08:26;;;;;;;7.75;2.95;;;14.30;81.20;;;;;;5014685;28;20472;-71
2024/01/28 11:10:52;;;;;;;4.00;2.40;;;14.60;80.20;;;;;;5014119;28;20030;-72
2024/01/28 11:13:18;;;;;;;8.75;2.63;;;15.00;78.00;;;;;;5014462;28;20382;-72
2024/01/28 11:15:45;;;;;;;5.03;2.75;;;14.80;79.70;;;;;;5014442;28;20022;-72
2024/01/28 11:18:11;;;;;;;7.68;2.60;;;15.40;78.60;;;;;;5014443;28;20048;-72
2024/01/28 11:20:37;;;;;;;8.45;2.85;;;15.30;77.30;;;;;;5014033;28;20112;-72
2024/01/28 11:23:04;;;;;;;7.35;2.67;;;15.30;77.00;;;;;;5014377;28;20034;-72
2024/01/28 11:25:30;;;;;;;6.47;2.28;;;15.10;76.40;;;;;;5013968;28;20460;-72
2024/01/28 11:28:01;;;;;;;7.88;2.50;;;14.90;77.10;;;;;;5013949;28;20026;-72
2024/01/28 11:30:27;;;;;;;6.40;2.50;;;15.50;75.50;;;;;;5013887;28;20025;-71
2024/01/28 11:33:07;;;;;;;5.63;2.65;;;15.30;74.50;;;;;;5014251;28;20084;-71
2024/01/28 11:35:33;;;;;;;5.75;2.00;;;15.10;73.80;;;;;;5014109;28;20121;-72
2024/01/28 11:38:04;;;;;;;4.45;2.53;;;14.80;74.40;;;;;;5013874;28;20076;-71
2024/01/28 11:40:35;;;;;;;5.70;2.35;;;13.90;75.90;;;;;;5014205;28;20030;-71
2024/01/28 11:43:05;;;;;;;5.28;2.40;;;13.60;78.20;;;;;;5013844;28;20021;-71
2024/01/28 11:45:31;;;;;;;4.63;2.15;;;13.30;78.60;;;;;;5014087;28;20547;-71
2024/01/28 11:47:57;;;;;;;4.75;2.50;;;13.10;80.50;;;;;;5013940;28;20123;-71
2024/01/28 11:50:24;;;;;;;5.53;2.53;;;12.70;81.00;;;;;;5014015;28;20084;-71
2024/01/28 11:52:49;;;;;;;4.85;2.13;;;12.50;83.30;;;;;;5013667;28;20518;-71
2024/01/28 11:55:17;;;;;;;7.10;2.55;;;12.50;85.30;;;;;;5013875;28;20022;-72
2024/01/28 11:57:45;;;;;;;4.90;2.15;;;12.50;84.40;;;;;;5013812;28;20396;-72
2024/01/28 12:00:12;;;;;;;5.95;2.80;;;12.50;85.60;;;;;;5013919;28;20030;-71
2024/01/28 12:02:39;;;;;;;3.70;2.40;;;12.50;85.80;;;;;;5013844;28;20480;-71
2024/01/28 12:05:07;;;;;;;4.40;2.13;;;12.40;85.80;;;;;;5013846;28;20033;-72
2024/01/28 12:07:35;;;;;;;4.75;2.22;;;12.40;84.40;;;;;;5013748;28;20057;-72
2024/01/28 12:10:01;;;;;;;4.32;2.42;;;12.30;86.00;;;;;;5013245;28;20447;-71
2024/01/28 12:12:28;;;;;;;5.15;2.40;;;12.20;86.50;;;;;;5013618;28;20029;-72
2024/01/28 12:14:53;;;;;;;6.45;2.28;;;12.20;86.80;;;;;;5013692;28;20029;-71
2024/01/28 12:17:19;;;;;;;7.20;2.78;;;12.10;86.60;;;;;;5013605;28;20546;-72
2024/01/28 12:19:44;;;;;;;7.57;2.60;;;12.00;87.10;;;;;;5013617;28;20022;-72
2024/01/28 12:22:11;;;;;;;6.32;2.60;;;12.20;89.30;;;;;;5012755;28;20053;-72
2024/01/28 12:24:45;;;;;;;6.80;2.40;;;12.20;88.30;;;;;;5013172;28;20079;-72
2024/01/28 12:27:11;;;;;;;7.85;2.72;;;12.30;86.10;;;;;;5013553;28;20026;-71
2024/01/28 12:29:36;;;;;;;8.45;2.30;;;12.10;87.20;;;;;;5013606;28;20030;-71
2024/01/28 12:32:02;;;;;;;5.03;2.60;;;12.00;87.70;;;;;;5013258;28;20030;-71
2024/01/28 12:34:28;;;;;;;5.20;2.65;;;12.00;89.20;;;;;;5013216;28;20048;-71